Time;durP1;ratioP1;P1;durP2;ratioP2;P2;SDS_P1;SDS_P2;PMS_P1;PMS_P2;Temp;Humidity;BMP_temperature;BMP_pressure;BME280_temperature;BME280_humidity;BME280_pressure;Samples;Min_cycle;Max_cycle;Signal;HPM_P1;HPM_P2
2022/04/18 00:02:23;;;;;;;;;;;20.10;32.50;;;;;;5075472;28;19920;-46
2022/04/18 00:04:50;;;;;;;;;;;20.10;32.50;;;;;;5065092;28;19929;-53
2022/04/18 00:07:18;;;;;;;;;;;20.10;32.50;;;;;;5061576;28;19931;-47
2022/04/18 00:09:45;;;;;;;;;;;20.10;32.50;;;;;;5066737;28;20015;-52
2022/04/18 00:12:11;;;;;;;;;;;20.10;32.50;;;;;;5054699;28;19927;-48
2022/04/18 00:14:38;;;;;;;;;;;20.10;32.50;;;;;;5074981;28;19920;-52
2022/04/18 00:17:09;;;;;;;;;;;20.10;32.50;;;;;;5074410;28;19920;-48
2022/04/18 00:19:36;;;;;;;;;;;20.10;32.50;;;;;;5069856;28;19986;-47
2022/04/18 00:22:03;;;;;;;;;;;20.10;32.50;;;;;;5075790;28;19987;-53
2022/04/18 00:24:31;;;;;;;;;;;20.10;32.50;;;;;;5064258;28;19931;-50
2022/04/18 00:26:58;;;;;;;;;;;20.10;32.50;;;;;;5073803;28;19967;-49
2022/04/18 00:29:24;;;;;;;;;;;20.10;32.50;;;;;;5072124;28;20015;-50
2022/04/18 00:31:51;;;;;;;;;;;20.10;32.50;;;;;;5074823;28;19928;-52
2022/04/18 00:34:18;;;;;;;;;;;20.10;32.50;;;;;;5060090;28;19924;-53
2022/04/18 00:36:45;;;;;;;;;;;20.10;32.50;;;;;;5065445;28;19940;-49
2022/04/18 00:39:11;;;;;;;;;;;20.10;32.50;;;;;;5062354;28;19920;-49
2022/04/18 00:41:40;;;;;;;;;;;20.00;32.40;;;;;;5058803;28;19980;-50
2022/04/18 00:44:07;;;;;;;;;;;20.10;32.50;;;;;;5069962;28;20385;-47
2022/04/18 00:46:33;;;;;;;;;;;20.10;32.50;;;;;;5087012;28;19968;-55
2022/04/18 00:49:00;;;;;;;;;;;20.10;32.50;;;;;;5059476;28;19920;-48
2022/04/18 00:51:28;;;;;;;;;;;20.10;32.50;;;;;;5067847;28;19935;-52
2022/04/18 00:53:55;;;;;;;;;;;20.10;32.60;;;;;;5058965;28;19931;-51
2022/04/18 00:56:23;;;;;;;;;;;20.10;32.50;;;;;;5070683;28;19924;-50
2022/04/18 00:58:51;;;;;;;;;;;20.10;32.50;;;;;;5056706;28;19921;-48
2022/04/18 01:01:18;;;;;;;;;;;20.10;32.60;;;;;;5064185;28;19928;-51
2022/04/18 01:03:45;;;;;;;;;;;20.10;32.50;;;;;;5054726;28;20012;-47
2022/04/18 01:06:12;;;;;;;;;;;20.10;32.60;;;;;;5067633;28;19928;-50
2022/04/18 01:08:39;;;;;;;;;;;20.10;32.60;;;;;;5063967;28;19959;-49
2022/04/18 01:11:06;;;;;;;;;;;20.10;32.50;;;;;;5077659;28;19920;-52
2022/04/18 01:13:39;;;;;;;;;;;20.10;32.50;;;;;;5071110;28;19920;-47
2022/04/18 01:16:08;;;;;;;;;;;20.10;32.50;;;;;;5077233;28;19932;-47
2022/04/18 01:18:35;;;;;;;;;;;20.10;32.50;;;;;;5062052;28;19921;-52
2022/04/18 01:21:03;;;;;;;;;;;20.10;32.50;;;;;;5080492;28;19994;-48
2022/04/18 01:23:30;;;;;;;;;;;20.10;32.50;;;;;;5054385;28;19921;-48
2022/04/18 01:29:00;;;;;;;;;;;20.10;32.50;;;;;;5078758;28;20354;-49
2022/04/18 01:31:27;;;;;;;;;;;20.00;32.40;;;;;;5068138;28;19920;-49
2022/04/18 01:33:54;;;;;;;;;;;20.10;32.50;;;;;;5066918;28;20334;-51
2022/04/18 01:36:22;;;;;;;;;;;20.10;32.50;;;;;;5067981;28;19927;-51
2022/04/18 01:38:49;;;;;;;;;;;20.10;32.50;;;;;;5058188;28;19956;-54
2022/04/18 01:41:15;;;;;;;;;;;20.00;32.40;;;;;;5072980;28;19974;-52
2022/04/18 01:43:42;;;;;;;;;;;20.10;32.50;;;;;;5062815;28;19927;-52
2022/04/18 01:46:09;;;;;;;;;;;20.00;32.40;;;;;;5076279;28;19990;-50
2022/04/18 01:48:36;;;;;;;;;;;20.10;32.50;;;;;;5064973;28;19920;-48
2022/04/18 01:51:02;;;;;;;;;;;20.10;32.40;;;;;;5060447;28;19983;-50
2022/04/18 01:53:31;;;;;;;;;;;20.00;32.30;;;;;;5074637;28;19921;-50
2022/04/18 01:55:57;;;;;;;;;;;20.00;32.30;;;;;;5094128;28;20027;-48
2022/04/18 01:58:24;;;;;;;;;;;20.00;32.30;;;;;;5079401;28;19943;-47
2022/04/18 02:00:51;;;;;;;;;;;20.00;32.30;;;;;;5093769;28;19920;-47
2022/04/18 02:03:18;;;;;;;;;;;20.00;32.30;;;;;;5063003;28;19924;-51
2022/04/18 02:05:45;;;;;;;;;;;20.00;32.30;;;;;;5066433;28;20445;-49
2022/04/18 02:08:13;;;;;;;;;;;20.00;32.30;;;;;;5072331;28;19943;-48
2022/04/18 02:10:42;;;;;;;;;;;20.00;32.30;;;;;;5065421;28;19925;-51
2022/04/18 02:13:09;;;;;;;;;;;20.00;32.30;;;;;;5083988;28;19921;-53
2022/04/18 02:15:36;;;;;;;;;;;20.00;32.30;;;;;;5062945;28;19967;-51
2022/04/18 02:18:03;;;;;;;;;;;20.00;32.20;;;;;;5073716;28;19921;-51
2022/04/18 02:20:29;;;;;;;;;;;20.00;32.20;;;;;;5063716;28;20281;-52
2022/04/18 02:22:57;;;;;;;;;;;20.00;32.20;;;;;;5081864;28;19921;-46
2022/04/18 02:25:24;;;;;;;;;;;20.00;32.20;;;;;;5083312;28;19974;-47
2022/04/18 02:27:52;;;;;;;;;;;20.10;32.30;;;;;;5082603;28;19921;-51
2022/04/18 02:30:19;;;;;;;;;;;20.00;32.20;;;;;;5058578;28;19944;-52
2022/04/18 02:32:49;;;;;;;;;;;20.00;32.20;;;;;;5071932;28;19927;-47
2022/04/18 02:35:16;;;;;;;;;;;20.10;32.30;;;;;;5063611;28;19974;-54
2022/04/18 02:37:43;;;;;;;;;;;20.00;32.20;;;;;;5067071;28;20020;-53
2022/04/18 02:40:11;;;;;;;;;;;20.00;32.20;;;;;;5065514;28;20039;-51
2022/04/18 02:42:38;;;;;;;;;;;20.00;32.20;;;;;;5079468;28;19925;-48
2022/04/18 02:45:07;;;;;;;;;;;20.00;32.20;;;;;;5075874;28;19990;-52
2022/04/18 02:47:34;;;;;;;;;;;20.00;32.20;;;;;;5093476;28;19932;-55
2022/04/18 02:50:01;;;;;;;;;;;20.00;32.20;;;;;;5061551;28;20305;-50
2022/04/18 02:52:28;;;;;;;;;;;20.00;32.20;;;;;;5065383;28;19927;-52
2022/04/18 02:54:55;;;;;;;;;;;20.00;32.20;;;;;;5059342;28;19925;-50
2022/04/18 02:57:22;;;;;;;;;;;20.00;32.20;;;;;;5058397;28;20250;-48
2022/04/18 02:59:48;;;;;;;;;;;20.00;32.20;;;;;;5076405;28;20401;-47
2022/04/18 03:02:16;;;;;;;;;;;20.00;32.20;;;;;;5074447;28;20331;-49
2022/04/18 03:04:43;;;;;;;;;;;20.00;32.20;;;;;;5086152;28;19986;-49
2022/04/18 03:07:10;;;;;;;;;;;20.00;32.20;;;;;;5069304;28;19938;-51
2022/04/18 03:09:36;;;;;;;;;;;20.00;32.20;;;;;;5064950;28;20481;-50
2022/04/18 03:12:03;;;;;;;;;;;20.00;32.20;;;;;;5069104;28;19929;-52
2022/04/18 03:14:30;;;;;;;;;;;20.00;32.20;;;;;;5074678;28;19929;-53
2022/04/18 03:16:57;;;;;;;;;;;20.00;32.20;;;;;;5071716;28;19920;-51
2022/04/18 03:19:25;;;;;;;;;;;20.00;32.20;;;;;;5071388;28;19924;-50
2022/04/18 03:21:52;;;;;;;;;;;20.00;32.10;;;;;;5059004;28;19920;-50
2022/04/18 03:24:19;;;;;;;;;;;20.00;32.10;;;;;;5065698;28;19928;-52
2022/04/18 03:26:46;;;;;;;;;;;20.00;32.10;;;;;;5066926;28;19925;-49
2022/04/18 03:29:13;;;;;;;;;;;20.00;32.10;;;;;;5062762;28;19925;-52
2022/04/18 03:31:39;;;;;;;;;;;20.00;32.10;;;;;;5060302;28;19928;-52
2022/04/18 03:34:06;;;;;;;;;;;20.00;32.10;;;;;;5065529;28;19921;-53
2022/04/18 03:42:03;;;;;;;;;;;20.00;32.10;;;;;;5082907;28;19964;-53
2022/04/18 03:44:30;;;;;;;;;;;20.00;32.10;;;;;;5067270;28;19920;-47
2022/04/18 03:46:57;;;;;;;;;;;20.00;32.10;;;;;;5075505;28;19925;-52
2022/04/18 03:49:24;;;;;;;;;;;20.00;32.10;;;;;;5069050;28;19920;-54
2022/04/18 03:51:52;;;;;;;;;;;20.00;32.10;;;;;;5064765;28;19924;-54
2022/04/18 03:54:19;;;;;;;;;;;20.00;32.10;;;;;;5081036;28;19956;-53
2022/04/18 03:56:46;;;;;;;;;;;20.00;32.10;;;;;;5064243;28;19928;-50
2022/04/18 03:59:12;;;;;;;;;;;20.00;32.10;;;;;;5070170;28;20350;-52
2022/04/18 04:01:40;;;;;;;;;;;20.00;32.10;;;;;;5091361;28;20054;-51
2022/04/18 04:04:07;;;;;;;;;;;20.00;32.10;;;;;;5091994;28;20365;-50
2022/04/18 04:06:33;;;;;;;;;;;20.00;32.10;;;;;;5064885;28;19974;-50
2022/04/18 04:09:02;;;;;;;;;;;20.00;32.10;;;;;;5070670;28;19920;-50
2022/04/18 04:11:29;;;;;;;;;;;20.00;32.10;;;;;;5065232;28;19999;-53
2022/04/18 04:13:56;;;;;;;;;;;20.00;32.10;;;;;;5055578;28;19963;-52
2022/04/18 04:16:23;;;;;;;;;;;20.00;32.10;;;;;;5076662;28;19932;-50
2022/04/18 04:18:50;;;;;;;;;;;20.00;32.00;;;;;;5073217;28;19967;-50
2022/04/18 04:21:17;;;;;;;;;;;20.00;32.00;;;;;;5090656;28;19921;-51
2022/04/18 04:23:44;;;;;;;;;;;20.00;32.00;;;;;;5084101;28;19924;-50
2022/04/18 04:26:12;;;;;;;;;;;20.00;32.00;;;;;;5055147;28;19925;-48
2022/04/18 04:28:39;;;;;;;;;;;20.00;32.00;;;;;;5058025;28;19932;-47
2022/04/18 04:31:05;;;;;;;;;;;20.00;32.00;;;;;;5073034;28;19974;-47
2022/04/18 04:33:32;;;;;;;;;;;20.00;32.00;;;;;;5075262;28;19952;-47
2022/04/18 04:35:59;;;;;;;;;;;20.00;32.00;;;;;;5058815;28;20374;-52
2022/04/18 04:38:25;;;;;;;;;;;20.00;31.90;;;;;;5074870;28;19920;-51
2022/04/18 04:40:53;;;;;;;;;;;20.00;32.00;;;;;;5075995;28;19951;-50
2022/04/18 04:43:21;;;;;;;;;;;20.00;32.00;;;;;;5075399;28;19943;-46
2022/04/18 04:45:48;;;;;;;;;;;20.00;32.00;;;;;;5076071;28;19956;-47
2022/04/18 04:48:14;;;;;;;;;;;20.00;32.00;;;;;;5088345;28;19927;-49
2022/04/18 04:50:41;;;;;;;;;;;20.00;32.00;;;;;;5082424;28;19921;-46
2022/04/18 04:53:08;;;;;;;;;;;20.00;32.00;;;;;;5059449;28;19921;-49
2022/04/18 04:55:36;;;;;;;;;;;20.00;32.00;;;;;;5070354;28;19988;-46
2022/04/18 04:58:03;;;;;;;;;;;20.00;32.00;;;;;;5064970;28;19978;-50
2022/04/18 05:00:31;;;;;;;;;;;20.00;32.00;;;;;;5079311;28;19990;-46
2022/04/18 05:02:58;;;;;;;;;;;20.00;32.00;;;;;;5084797;28;19925;-50
2022/04/18 05:05:25;;;;;;;;;;;20.00;32.00;;;;;;5086224;28;20427;-46
2022/04/18 05:07:52;;;;;;;;;;;20.00;32.00;;;;;;5088408;28;19935;-50
2022/04/18 05:10:19;;;;;;;;;;;20.00;32.00;;;;;;5080496;28;19967;-48
2022/04/18 05:12:45;;;;;;;;;;;20.00;32.00;;;;;;5075513;28;19986;-49
2022/04/18 05:15:12;;;;;;;;;;;20.00;32.00;;;;;;5080727;28;19921;-51
2022/04/18 05:17:40;;;;;;;;;;;20.00;31.90;;;;;;5066532;28;19940;-51
2022/04/18 05:20:07;;;;;;;;;;;20.00;31.90;;;;;;5078566;28;19932;-46
2022/04/18 05:22:34;;;;;;;;;;;20.00;31.90;;;;;;5079412;28;19984;-48
2022/04/18 05:25:00;;;;;;;;;;;20.00;31.90;;;;;;5072315;28;20333;-46
2022/04/18 05:27:27;;;;;;;;;;;20.00;31.90;;;;;;5090253;28;19920;-46
2022/04/18 05:29:54;;;;;;;;;;;20.00;31.90;;;;;;5072673;28;19925;-47
2022/04/18 05:32:21;;;;;;;;;;;20.00;31.90;;;;;;5072773;28;20051;-49
2022/04/18 05:34:49;;;;;;;;;;;20.00;31.80;;;;;;5077778;28;20288;-51
2022/04/18 05:37:15;;;;;;;;;;;20.00;31.90;;;;;;5064976;28;19931;-50
2022/04/18 05:39:42;;;;;;;;;;;20.00;31.90;;;;;;5058089;28;19925;-49
2022/04/18 05:42:09;;;;;;;;;;;20.00;31.90;;;;;;5072635;28;20417;-49
2022/04/18 05:44:36;;;;;;;;;;;20.00;31.90;;;;;;5091769;28;19920;-49
2022/04/18 05:47:02;;;;;;;;;;;20.00;31.90;;;;;;5070148;28;19963;-46
2022/04/18 05:49:29;;;;;;;;;;;20.00;31.90;;;;;;5063079;28;19936;-47
2022/04/18 05:51:57;;;;;;;;;;;20.00;31.90;;;;;;5068851;28;19963;-49
2022/04/18 05:54:24;;;;;;;;;;;20.00;31.90;;;;;;5068572;28;19924;-46
2022/04/18 05:56:50;;;;;;;;;;;20.00;31.90;;;;;;5084959;28;19921;-52
2022/04/18 05:59:17;;;;;;;;;;;20.00;31.90;;;;;;5073241;28;19952;-50
2022/04/18 06:01:44;;;;;;;;;;;20.00;31.80;;;;;;5086706;28;19974;-48
2022/04/18 06:04:11;;;;;;;;;;;20.00;31.90;;;;;;5066193;28;19988;-50
2022/04/18 06:06:37;;;;;;;;;;;20.00;31.80;;;;;;5093598;28;19920;-49
2022/04/18 06:09:05;;;;;;;;;;;20.00;31.80;;;;;;5072762;28;19956;-50
2022/04/18 06:11:32;;;;;;;;;;;19.90;31.80;;;;;;5077642;28;19970;-50
2022/04/18 06:13:59;;;;;;;;;;;20.00;31.90;;;;;;5062402;28;19920;-49
2022/04/18 06:16:26;;;;;;;;;;;20.00;31.90;;;;;;5078871;28;20327;-48
2022/04/18 06:18:52;;;;;;;;;;;19.90;31.80;;;;;;5076803;28;19959;-47
2022/04/18 06:21:19;;;;;;;;;;;20.00;31.90;;;;;;5094661;28;19924;-52
2022/04/18 06:23:46;;;;;;;;;;;19.90;31.80;;;;;;5090804;28;20003;-51
2022/04/18 06:26:14;;;;;;;;;;;19.90;31.80;;;;;;5069250;28;20053;-51
2022/04/18 06:28:41;;;;;;;;;;;20.00;31.90;;;;;;5077678;28;19953;-48
2022/04/18 06:31:07;;;;;;;;;;;20.00;31.90;;;;;;5057942;28;19959;-53
2022/04/18 06:33:35;;;;;;;;;;;20.00;32.50;;;;;;5065506;28;19925;-52
2022/04/18 06:36:02;;;;;;;;;;;19.90;31.80;;;;;;5071931;28;19927;-55
2022/04/18 06:38:29;;;;;;;;;;;20.00;31.90;;;;;;5067246;28;19939;-52
2022/04/18 06:40:56;;;;;;;;;;;20.00;31.90;;;;;;5069971;28;19963;-52
2022/04/18 06:43:24;;;;;;;;;;;20.00;31.90;;;;;;5063831;28;19921;-53
2022/04/18 06:45:51;;;;;;;;;;;20.00;31.90;;;;;;5081460;28;20376;-53
2022/04/18 06:48:17;;;;;;;;;;;19.90;31.80;;;;;;5063367;28;19959;-46
2022/04/18 06:50:45;;;;;;;;;;;20.00;32.00;;;;;;5083326;28;20341;-48
2022/04/18 06:53:12;;;;;;;;;;;20.00;32.00;;;;;;5060588;28;19921;-46
2022/04/18 06:58:24;;;;;;;;;;;20.00;32.00;;;;;;5062995;28;20638;-46
2022/04/18 07:00:51;;;;;;;;;;;20.00;32.00;;;;;;5063652;28;19967;-48
2022/04/18 07:03:18;;;;;;;;;;;20.00;32.00;;;;;;5066348;28;19992;-46
2022/04/18 07:05:45;;;;;;;;;;;20.00;32.00;;;;;;5070686;28;19925;-47
2022/04/18 07:08:11;;;;;;;;;;;20.00;32.00;;;;;;5063733;28;19978;-46
2022/04/18 07:10:38;;;;;;;;;;;20.00;32.00;;;;;;5086115;28;19927;-52
2022/04/18 07:13:05;;;;;;;;;;;20.00;32.00;;;;;;5071721;28;19930;-51
2022/04/18 07:15:33;;;;;;;;;;;20.00;32.00;;;;;;5061145;28;19979;-47
2022/04/18 07:18:01;;;;;;;;;;;20.00;32.00;;;;;;5079992;28;19921;-50
2022/04/18 07:20:28;;;;;;;;;;;20.00;32.00;;;;;;5056349;28;19974;-46
2022/04/18 07:22:55;;;;;;;;;;;20.00;32.00;;;;;;5067767;28;19967;-47
2022/04/18 07:25:22;;;;;;;;;;;20.00;32.00;;;;;;5070632;28;19920;-47
2022/04/18 07:27:48;;;;;;;;;;;20.00;32.00;;;;;;5066856;28;20283;-48
2022/04/18 07:30:15;;;;;;;;;;;20.00;32.00;;;;;;5068164;28;19928;-47
2022/04/18 07:32:44;;;;;;;;;;;20.00;32.00;;;;;;5066265;28;20434;-51
2022/04/18 07:35:11;;;;;;;;;;;20.00;32.00;;;;;;5069637;28;19948;-51
2022/04/18 07:38:48;;;;;;;;;;;20.00;32.00;;;;;;5056512;28;19968;-47
2022/04/18 07:40:24;;;;;;;;;;;20.00;32.00;;;;;;5062177;28;19925;-46
2022/04/18 07:42:51;;;;;;;;;;;20.00;32.00;;;;;;5071162;28;20370;-47
2022/04/18 07:45:18;;;;;;;;;;;20.00;31.90;;;;;;5076086;28;19995;-48
2022/04/18 07:47:46;;;;;;;;;;;20.00;32.00;;;;;;5087221;28;19921;-51
2022/04/18 07:50:13;;;;;;;;;;;20.00;32.00;;;;;;5076394;28;19980;-51
2022/04/18 07:52:40;;;;;;;;;;;20.00;32.00;;;;;;5071595;28;19925;-50
2022/04/18 07:55:07;;;;;;;;;;;20.00;32.00;;;;;;5068944;28;20000;-46
2022/04/18 07:57:34;;;;;;;;;;;20.00;32.00;;;;;;5060377;28;19943;-53
2022/04/18 08:00:01;;;;;;;;;;;20.00;32.00;;;;;;5073921;28;20323;-50
2022/04/18 08:02:28;;;;;;;;;;;20.00;31.90;;;;;;5091947;28;20019;-52
2022/04/18 08:04:56;;;;;;;;;;;20.00;31.90;;;;;;5088907;28;20437;-49
2022/04/18 08:07:22;;;;;;;;;;;20.00;31.90;;;;;;5059662;28;20434;-50
2022/04/18 08:09:50;;;;;;;;;;;20.00;31.90;;;;;;5067341;28;19952;-51
2022/04/18 08:12:17;;;;;;;;;;;20.00;31.90;;;;;;5069584;28;19954;-48
2022/04/18 08:14:44;;;;;;;;;;;20.00;31.90;;;;;;5061369;28;19935;-48
2022/04/18 08:17:11;;;;;;;;;;;20.00;31.90;;;;;;5066717;28;19963;-51
2022/04/18 08:19:39;;;;;;;;;;;20.00;32.00;;;;;;5064305;28;19940;-47
2022/04/18 08:22:07;;;;;;;;;;;20.00;32.00;;;;;;5058969;28;19924;-51
2022/04/18 08:24:34;;;;;;;;;;;20.00;32.00;;;;;;5057696;28;19928;-49
2022/04/18 08:27:01;;;;;;;;;;;20.00;32.10;;;;;;5084086;28;19921;-48
2022/04/18 08:29:28;;;;;;;;;;;20.00;32.10;;;;;;5064344;28;19920;-47
2022/04/18 08:31:54;;;;;;;;;;;20.00;32.10;;;;;;5067785;28;20315;-52
2022/04/18 08:34:21;;;;;;;;;;;20.00;32.10;;;;;;5067261;28;19925;-45
2022/04/18 08:36:48;;;;;;;;;;;20.00;32.10;;;;;;5055201;28;19921;-46
2022/04/18 08:39:16;;;;;;;;;;;20.00;32.20;;;;;;5070616;28;19960;-48
2022/04/18 08:41:45;;;;;;;;;;;20.00;32.20;;;;;;5062269;28;19920;-49
2022/04/18 08:44:12;;;;;;;;;;;20.00;32.20;;;;;;5061120;28;19927;-54
2022/04/18 08:46:39;;;;;;;;;;;20.00;32.20;;;;;;5056789;28;19960;-47
2022/04/18 08:54:36;;;;;;;;;;;20.00;32.20;;;;;;5062969;28;19931;-50
2022/04/18 08:57:04;;;;;;;;;;;20.00;32.20;;;;;;5063367;28;19944;-49
2022/04/18 08:59:31;;;;;;;;;;;20.00;32.20;;;;;;5058193;28;19932;-46
2022/04/18 09:01:59;;;;;;;;;;;20.00;32.20;;;;;;5061075;28;19929;-46
2022/04/18 09:04:26;;;;;;;;;;;19.90;32.20;;;;;;5059147;28;20283;-49
2022/04/18 09:06:53;;;;;;;;;;;20.00;32.20;;;;;;5074940;28;19920;-53
2022/04/18 09:09:26;;;;;;;;;;;20.00;32.20;;;;;;5066771;28;19924;-48
2022/04/18 09:11:54;;;;;;;;;;;19.90;32.10;;;;;;5066084;28;20034;-48
2022/04/18 09:14:21;;;;;;;;;;;19.90;32.10;;;;;;5059018;28;19944;-48
2022/04/18 09:16:48;;;;;;;;;;;19.90;32.10;;;;;;5078331;28;19931;-47
2022/04/18 09:19:16;;;;;;;;;;;19.90;32.10;;;;;;5063284;28;20273;-47
2022/04/18 09:21:43;;;;;;;;;;;19.90;32.00;;;;;;5059664;28;19925;-50
2022/04/18 09:24:22;;;;;;;;;;;19.90;32.00;;;;;;5060608;28;19920;-48
2022/04/18 09:26:49;;;;;;;;;;;19.90;31.90;;;;;;5054652;28;19928;-47
2022/04/18 09:29:17;;;;;;;;;;;19.90;31.80;;;;;;5075259;28;19921;-47
2022/04/18 09:31:44;;;;;;;;;;;19.90;31.80;;;;;;5063130;28;19986;-52
2022/04/18 09:34:12;;;;;;;;;;;19.90;31.70;;;;;;5060369;28;19970;-51
2022/04/18 09:36:39;;;;;;;;;;;19.90;31.70;;;;;;5065584;28;19943;-46
2022/04/18 09:39:06;;;;;;;;;;;19.90;31.70;;;;;;5084862;28;19921;-48
2022/04/18 09:41:33;;;;;;;;;;;19.90;31.70;;;;;;5067069;28;19920;-48
2022/04/18 09:44:00;;;;;;;;;;;19.90;31.70;;;;;;5057526;28;20015;-52
2022/04/18 09:46:28;;;;;;;;;;;19.90;31.70;;;;;;5060509;28;20002;-51
2022/04/18 09:49:01;;;;;;;;;;;19.90;31.70;;;;;;5068131;28;19927;-46
2022/04/18 09:51:30;;;;;;;;;;;19.90;31.70;;;;;;5073084;28;19925;-49
2022/04/18 09:53:57;;;;;;;;;;;19.90;31.80;;;;;;5058522;28;19947;-49
2022/04/18 09:56:24;;;;;;;;;;;19.90;31.80;;;;;;5075986;28;19920;-48
2022/04/18 09:58:53;;;;;;;;;;;19.90;31.80;;;;;;5063961;28;19974;-48
2022/04/18 10:01:19;;;;;;;;;;;19.90;31.80;;;;;;5076829;28;19920;-50
2022/04/18 10:03:50;;;;;;;;;;;19.90;31.80;;;;;;5060118;28;20577;-49
2022/04/18 10:06:16;;;;;;;;;;;19.90;31.90;;;;;;5059653;28;19927;-47
2022/04/18 10:08:44;;;;;;;;;;;19.90;31.80;;;;;;5069443;28;20018;-47
2022/04/18 10:11:30;;;;;;;;;;;19.90;31.90;;;;;;5064169;28;20392;-46
2022/04/18 10:13:57;;;;;;;;;;;19.90;31.90;;;;;;5084126;28;19933;-49
2022/04/18 10:16:23;;;;;;;;;;;19.90;31.80;;;;;;5063335;28;19979;-46
2022/04/18 10:18:53;;;;;;;;;;;19.90;31.80;;;;;;5065264;28;19921;-48
2022/04/18 10:21:27;;;;;;;;;;;19.90;31.80;;;;;;5060842;28;20377;-47
2022/04/18 10:24:09;;;;;;;;;;;19.90;31.80;;;;;;5066509;28;19925;-49
2022/04/18 10:26:48;;;;;;;;;;;19.90;31.80;;;;;;5063665;28;19920;-52
2022/04/18 10:29:17;;;;;;;;;;;19.90;31.80;;;;;;5066295;28;19952;-48
2022/04/18 10:31:43;;;;;;;;;;;19.90;31.70;;;;;;5074598;28;19964;-51
2022/04/18 10:34:12;;;;;;;;;;;19.90;31.70;;;;;;5072914;28;19924;-47
2022/04/18 10:36:44;;;;;;;;;;;19.90;31.60;;;;;;5067904;28;20303;-49
2022/04/18 10:39:11;;;;;;;;;;;19.90;31.60;;;;;;5081514;28;19977;-46
2022/04/18 10:41:38;;;;;;;;;;;19.90;31.70;;;;;;5064786;28;19921;-46
2022/04/18 10:44:07;;;;;;;;;;;19.90;31.70;;;;;;5076300;28;19960;-49
2022/04/18 10:46:34;;;;;;;;;;;19.90;31.80;;;;;;5090561;28;19920;-48
2022/04/18 10:49:01;;;;;;;;;;;19.90;31.90;;;;;;5094012;28;19965;-45
2022/04/18 10:51:30;;;;;;;;;;;19.90;31.90;;;;;;5060174;28;19927;-45
2022/04/18 10:54:10;;;;;;;;;;;19.90;31.90;;;;;;5058982;28;19925;-44
2022/04/18 10:56:53;;;;;;;;;;;19.90;31.80;;;;;;5058941;28;20014;-48
2022/04/18 10:59:20;;;;;;;;;;;19.90;32.40;;;;;;5056772;28;19929;-46
2022/04/18 11:01:48;;;;;;;;;;;19.90;31.80;;;;;;5076875;28;19927;-47
2022/04/18 11:04:15;;;;;;;;;;;19.90;32.50;;;;;;5080098;28;19920;-46
2022/04/18 11:06:52;;;;;;;;;;;19.90;31.90;;;;;;5079757;28;20335;-46
2022/04/18 11:09:49;;;;;;;;;;;19.90;31.90;;;;;;5074557;28;19924;-47
2022/04/18 11:12:16;;;;;;;;;;;19.90;31.90;;;;;;5062877;28;19928;-47
2022/04/18 11:14:51;;;;;;;;;;;19.90;31.80;;;;;;5093688;28;19924;-54
2022/04/18 11:17:36;;;;;;;;;;;19.90;31.60;;;;;;5079464;28;19920;-47
2022/04/18 11:20:21;;;;;;;;;;;19.90;31.60;;;;;;5077234;28;19946;-50
2022/04/18 11:23:03;;;;;;;;;;;19.90;31.60;;;;;;5078824;28;20487;-50
2022/04/18 11:25:31;;;;;;;;;;;19.90;31.50;;;;;;5077001;28;19968;-52
2022/04/18 11:27:58;;;;;;;;;;;19.90;31.50;;;;;;5079381;28;20019;-50
2022/04/18 11:30:24;;;;;;;;;;;19.90;31.50;;;;;;5078271;28;20002;-47
2022/04/18 11:32:51;;;;;;;;;;;19.90;31.50;;;;;;5078988;28;19921;-54
2022/04/18 11:35:20;;;;;;;;;;;19.90;31.50;;;;;;5087443;28;19970;-51
2022/04/18 11:37:47;;;;;;;;;;;19.90;31.40;;;;;;5077627;28;20444;-47
2022/04/18 11:40:14;;;;;;;;;;;19.90;31.40;;;;;;5077536;28;19942;-52
2022/04/18 11:42:55;;;;;;;;;;;19.90;31.40;;;;;;5079384;28;19956;-48
2022/04/18 11:45:24;;;;;;;;;;;19.90;31.40;;;;;;5075320;28;20813;-55
2022/04/18 11:47:51;;;;;;;;;;;19.90;31.30;;;;;;5059328;28;19928;-53
2022/04/18 11:50:21;;;;;;;;;;;19.90;31.20;;;;;;5077399;28;19967;-46
2022/04/18 11:52:48;;;;;;;;;;;19.90;31.20;;;;;;5076810;28;19970;-52
2022/04/18 11:55:17;;;;;;;;;;;19.90;31.20;;;;;;5077330;28;19954;-49
2022/04/18 11:57:45;;;;;;;;;;;19.90;31.10;;;;;;5056148;28;20185;-47
2022/04/18 12:00:15;;;;;;;;;;;19.90;31.00;;;;;;5079323;28;20035;-49
2022/04/18 12:08:11;;;;;;;;;;;19.90;31.00;;;;;;5077310;28;20254;-49
2022/04/18 12:10:40;;;;;;;;;;;19.90;31.00;;;;;;5073590;28;19939;-50
2022/04/18 12:13:10;;;;;;;;;;;19.90;31.00;;;;;;5084957;28;19921;-51
2022/04/18 12:15:36;;;;;;;;;;;19.90;31.00;;;;;;5060375;28;19920;-51
2022/04/18 12:18:11;;;;;;;;;;;19.90;30.90;;;;;;5076627;28;19921;-50
2022/04/18 12:20:40;;;;;;;;;;;19.90;30.90;;;;;;5065330;28;19932;-50
2022/04/18 12:23:07;;;;;;;;;;;19.90;30.80;;;;;;5075110;28;19924;-55
2022/04/18 12:25:34;;;;;;;;;;;19.90;30.70;;;;;;5075815;28;20016;-52
2022/04/18 12:28:01;;;;;;;;;;;19.90;30.50;;;;;;5073332;28;19987;-51
2022/04/18 12:30:29;;;;;;;;;;;19.80;30.30;;;;;;5070367;28;19927;-51
2022/04/18 12:32:56;;;;;;;;;;;19.80;30.30;;;;;;5076909;28;20023;-52
2022/04/18 12:35:36;;;;;;;;;;;19.80;30.40;;;;;;5078786;28;19928;-51
2022/04/18 12:38:06;;;;;;;;;;;19.80;30.50;;;;;;5073129;28;19932;-53
2022/04/18 12:40:36;;;;;;;;;;;19.80;30.60;;;;;;5065463;28;19976;-54
2022/04/18 12:43:07;;;;;;;;;;;19.80;30.70;;;;;;5073144;28;19927;-51
2022/04/18 12:45:45;;;;;;;;;;;19.80;30.80;;;;;;5072132;28;19920;-48
2022/04/18 12:48:12;;;;;;;;;;;19.80;30.80;;;;;;5070020;28;19927;-53
2022/04/18 12:50:39;;;;;;;;;;;19.80;31.00;;;;;;5076927;28;19932;-52
2022/04/18 12:53:05;;;;;;;;;;;19.80;31.00;;;;;;5091176;28;20485;-51
2022/04/18 12:55:32;;;;;;;;;;;19.90;31.20;;;;;;5075778;28;20271;-51
2022/04/18 12:57:59;;;;;;;;;;;19.90;31.20;;;;;;5079239;28;19927;-54
2022/04/18 13:00:33;;;;;;;;;;;19.90;31.80;;;;;;5089008;28;19942;-51
2022/04/18 13:03:02;;;;;;;;;;;19.90;31.30;;;;;;5078025;28;19931;-53
2022/04/18 13:05:29;;;;;;;;;;;19.90;31.40;;;;;;5093766;28;20381;-52
2022/04/18 13:08:00;;;;;;;;;;;19.90;31.40;;;;;;5082802;28;19927;-50
2022/04/18 13:10:28;;;;;;;;;;;19.90;32.10;;;;;;5076940;28;19927;-53
2022/04/18 13:13:01;;;;;;;;;;;19.90;31.50;;;;;;5077602;28;19920;-48
2022/04/18 13:15:28;;;;;;;;;;;19.90;31.50;;;;;;5076780;28;20435;-53
2022/04/18 13:17:59;;;;;;;;;;;19.90;31.50;;;;;;5076553;28;19973;-48
2022/04/18 13:20:28;;;;;;;;;;;19.90;31.60;;;;;;5077267;28;19920;-51
2022/04/18 13:22:54;;;;;;;;;;;19.90;31.60;;;;;;5076875;28;20114;-50
2022/04/18 13:25:21;;;;;;;;;;;20.00;31.70;;;;;;5073493;28;19974;-53
2022/04/18 13:27:48;;;;;;;;;;;20.00;31.70;;;;;;5091586;28;19928;-51
2022/04/18 13:30:15;;;;;;;;;;;20.00;31.70;;;;;;5074982;28;19972;-48
2022/04/18 13:32:42;;;;;;;;;;;20.00;31.80;;;;;;5076697;28;19936;-51
2022/04/18 13:35:09;;;;;;;;;;;20.00;31.80;;;;;;5076347;28;19925;-51
2022/04/18 13:37:37;;;;;;;;;;;20.00;31.80;;;;;;5075704;28;19956;-47
2022/04/18 13:40:05;;;;;;;;;;;20.00;31.80;;;;;;5076000;28;19983;-48
2022/04/18 13:42:32;;;;;;;;;;;20.00;31.80;;;;;;5064339;28;20160;-51
2022/04/18 13:44:58;;;;;;;;;;;20.00;31.90;;;;;;5086979;28;19928;-47
2022/04/18 13:47:25;;;;;;;;;;;20.00;31.90;;;;;;5081052;28;19924;-53
2022/04/18 13:49:52;;;;;;;;;;;20.00;31.90;;;;;;5081449;28;20348;-48
2022/04/18 13:52:19;;;;;;;;;;;20.00;31.90;;;;;;5082147;28;19920;-52
2022/04/18 13:54:47;;;;;;;;;;;20.00;31.90;;;;;;5064203;28;19921;-50
2022/04/18 13:57:14;;;;;;;;;;;20.00;31.90;;;;;;5069720;28;19943;-51
2022/04/18 13:59:40;;;;;;;;;;;20.00;31.90;;;;;;5058935;28;19925;-50
2022/04/18 14:02:07;;;;;;;;;;;20.00;31.90;;;;;;5092986;28;19925;-51
2022/04/18 14:04:34;;;;;;;;;;;20.00;31.90;;;;;;5079184;28;19948;-49
2022/04/18 14:07:00;;;;;;;;;;;20.00;31.90;;;;;;5085527;28;19985;-47
2022/04/18 14:09:28;;;;;;;;;;;20.00;32.00;;;;;;5076184;28;19932;-50
2022/04/18 14:11:57;;;;;;;;;;;20.00;32.00;;;;;;5080456;28;19920;-50
2022/04/18 14:22:36;;;;;;;;;;;20.00;32.00;;;;;;5090559;28;19921;-50
2022/04/18 14:25:04;;;;;;;;;;;20.00;32.00;;;;;;5091747;28;19920;-48
2022/04/18 14:27:32;;;;;;;;;;;20.00;31.90;;;;;;5096089;28;19920;-53
2022/04/18 14:29:58;;;;;;;;;;;20.00;32.00;;;;;;5079200;28;19924;-54
2022/04/18 14:32:25;;;;;;;;;;;20.00;32.00;;;;;;5073001;28;19944;-50
2022/04/18 14:34:52;;;;;;;;;;;20.10;32.00;;;;;;5076618;28;19929;-47
2022/04/18 14:37:20;;;;;;;;;;;20.00;32.00;;;;;;5094179;28;20401;-51
2022/04/18 14:39:48;;;;;;;;;;;20.00;32.00;;;;;;5079561;28;19962;-49
2022/04/18 14:42:15;;;;;;;;;;;20.00;32.00;;;;;;5092670;28;19920;-50
2022/04/18 14:44:43;;;;;;;;;;;20.00;32.00;;;;;;5095245;28;19951;-46
2022/04/18 14:47:10;;;;;;;;;;;20.10;32.10;;;;;;5070957;28;19925;-49
2022/04/18 14:49:38;;;;;;;;;;;20.10;32.10;;;;;;5059371;28;19925;-51
2022/04/18 14:52:08;;;;;;;;;;;20.10;32.10;;;;;;5069149;28;19924;-47